createdAt,value
2023-04-30T00:01:18.369Z,68.29
2023-04-30T00:03:47.313Z,68.07
2023-04-30T00:06:16.630Z,68.07
2023-04-30T00:08:45.561Z,68.03
2023-04-30T00:11:14.413Z,67.98
2023-04-30T00:13:43.872Z,68.08
2023-04-30T00:16:12.749Z,67.80
2023-04-30T00:18:41.554Z,67.78
2023-04-30T00:21:10.550Z,67.69
2023-04-30T00:23:39.418Z,67.88
2023-04-30T00:26:08.228Z,68.01
2023-04-30T00:28:38.458Z,67.99
2023-04-30T00:31:09.326Z,68.18
2023-04-30T00:33:38.072Z,68.10
2023-04-30T00:36:07.605Z,68.12
2023-04-30T00:38:36.363Z,68.10
2023-04-30T00:41:05.144Z,68.03
2023-04-30T00:43:34.256Z,68.06
2023-04-30T00:46:03.907Z,68.07
2023-04-30T00:48:32.765Z,68.14
2023-04-30T00:51:01.926Z,68.34
2023-04-30T00:53:30.655Z,68.51
2023-04-30T00:55:59.855Z,68.65
2023-04-30T00:58:28.569Z,68.69
2023-04-30T01:00:57.397Z,68.91
2023-04-30T01:03:26.330Z,69.10
2023-04-30T01:05:55.322Z,69.36
2023-04-30T01:08:24.374Z,69.43
2023-04-30T01:10:55.623Z,69.69
2023-04-30T01:13:26.919Z,69.66
2023-04-30T01:15:58.359Z,69.87
2023-04-30T01:18:29.403Z,70.05
2023-04-30T01:20:59.557Z,70.23
2023-04-30T01:23:34.410Z,70.48
2023-04-30T01:26:07.853Z,70.43
2023-04-30T01:28:37.487Z,70.47
2023-04-30T01:31:07.951Z,70.79
2023-04-30T01:33:36.760Z,70.95
2023-04-30T01:36:18.137Z,70.94
2023-04-30T01:38:50.440Z,71.28
2023-04-30T01:41:21.353Z,71.23
2023-04-30T01:43:55.108Z,71.12
2023-04-30T01:46:27.359Z,71.03
2023-04-30T01:48:59.084Z,71.23
2023-04-30T01:51:30.808Z,71.22
2023-04-30T01:54:00.343Z,71.26
2023-04-30T01:56:33.667Z,71.22
2023-04-30T01:59:02.530Z,71.36
2023-04-30T02:01:32.000Z,71.35
2023-04-30T02:04:01.629Z,71.49
2023-04-30T02:06:31.301Z,71.42
2023-04-30T02:09:05.306Z,71.28
2023-04-30T02:11:34.258Z,71.52
2023-04-30T02:14:03.151Z,71.43
2023-04-30T02:16:32.179Z,71.51
2023-04-30T02:19:02.702Z,71.57
2023-04-30T02:21:31.762Z,71.47
2023-04-30T02:24:00.534Z,71.58
2023-04-30T02:26:29.286Z,71.40
2023-04-30T02:28:57.968Z,71.51
2023-04-30T02:31:26.834Z,71.32
2023-04-30T02:33:55.544Z,71.39
2023-04-30T02:36:24.791Z,71.37
2023-04-30T02:38:53.606Z,71.52
2023-04-30T02:41:22.703Z,71.38
2023-04-30T02:43:51.578Z,71.33
2023-04-30T02:46:20.471Z,71.45
2023-04-30T02:48:49.305Z,71.46
2023-04-30T02:51:18.374Z,71.60
2023-04-30T02:53:47.694Z,71.72
2023-04-30T02:56:16.561Z,71.70
2023-04-30T02:58:45.458Z,71.74
2023-04-30T03:01:14.594Z,71.73
2023-04-30T03:03:43.527Z,71.90
2023-04-30T03:06:13.007Z,71.78
2023-04-30T03:08:41.882Z,71.51
2023-04-30T03:11:10.675Z,71.31
2023-04-30T03:13:39.446Z,71.17
2023-04-30T03:16:08.514Z,71.21
2023-04-30T03:18:37.364Z,70.83
2023-04-30T03:21:06.329Z,70.55
2023-04-30T03:23:35.078Z,70.15
2023-04-30T03:26:04.015Z,69.87
2023-04-30T03:28:32.841Z,69.78
2023-04-30T03:31:05.855Z,69.53
2023-04-30T03:33:35.056Z,69.16
2023-04-30T03:36:04.072Z,68.99
2023-04-30T03:38:32.872Z,68.77
2023-04-30T03:41:01.658Z,68.73
2023-04-30T03:43:30.568Z,68.74
2023-04-30T03:45:59.792Z,68.44
2023-04-30T03:48:28.525Z,68.42
2023-04-30T03:50:57.355Z,68.30
2023-04-30T03:53:26.851Z,68.27
2023-04-30T03:55:55.768Z,67.90
2023-04-30T03:58:24.510Z,67.89
2023-04-30T04:00:53.417Z,67.89
2023-04-30T04:03:22.306Z,67.79
2023-04-30T04:05:51.387Z,67.46
2023-04-30T04:08:20.191Z,67.56
2023-04-30T04:10:49.585Z,67.66
2023-04-30T04:13:18.506Z,67.58
2023-04-30T04:15:47.421Z,67.33
2023-04-30T04:18:16.291Z,67.36
2023-04-30T04:20:45.283Z,67.16
2023-04-30T04:23:14.196Z,66.93
2023-04-30T04:25:44.326Z,66.39
2023-04-30T04:28:13.616Z,65.39
2023-04-30T04:30:42.538Z,65.55
2023-04-30T04:33:11.747Z,65.54
2023-04-30T04:35:40.638Z,65.58
2023-04-30T04:38:09.360Z,65.06
2023-04-30T04:40:38.319Z,64.46
2023-04-30T04:43:07.462Z,63.45
2023-04-30T04:45:37.720Z,62.55
2023-04-30T04:48:06.884Z,61.10
2023-04-30T04:50:36.088Z,60.68
2023-04-30T04:53:04.796Z,60.01
2023-04-30T04:55:33.673Z,58.77
2023-04-30T04:58:02.435Z,57.60
2023-04-30T05:00:31.164Z,56.96
2023-04-30T05:02:59.979Z,55.27
2023-04-30T05:05:28.790Z,56.59
2023-04-30T05:07:57.685Z,55.10
2023-04-30T05:10:26.382Z,54.42
2023-04-30T05:12:55.192Z,54.45
2023-04-30T05:15:23.899Z,54.12
2023-04-30T05:17:52.684Z,53.11
2023-04-30T05:20:21.406Z,52.01
2023-04-30T05:22:50.401Z,51.16
2023-04-30T05:25:19.535Z,50.42
2023-04-30T05:27:48.303Z,50.99
2023-04-30T05:30:17.026Z,50.94
2023-04-30T05:32:50.628Z,49.28
2023-04-30T05:35:19.474Z,48.78
2023-04-30T05:37:48.356Z,48.40
2023-04-30T05:40:17.386Z,49.42
2023-04-30T05:42:46.105Z,48.45
2023-04-30T05:45:17.157Z,48.40
2023-04-30T05:47:46.303Z,47.04
2023-04-30T05:50:15.223Z,46.33
2023-04-30T05:52:44.185Z,46.85
2023-04-30T05:55:12.980Z,47.52
2023-04-30T05:57:42.290Z,46.04
2023-04-30T06:00:12.613Z,45.68
2023-04-30T06:02:41.752Z,46.23
2023-04-30T06:05:11.745Z,46.31
2023-04-30T06:07:41.582Z,45.47
2023-04-30T06:10:12.551Z,46.19
2023-04-30T06:12:41.335Z,45.68
2023-04-30T06:15:11.640Z,46.17
2023-04-30T06:17:40.549Z,44.26
2023-04-30T06:20:10.218Z,43.62
2023-04-30T06:22:41.024Z,43.90
2023-04-30T06:25:10.891Z,43.52
2023-04-30T06:27:39.907Z,43.83
2023-04-30T06:30:09.974Z,43.16
2023-04-30T06:32:38.865Z,43.34
2023-04-30T06:35:08.132Z,42.24
2023-04-30T06:37:38.044Z,41.70
2023-04-30T06:40:08.152Z,41.74
2023-04-30T06:42:37.503Z,42.78
2023-04-30T06:45:07.491Z,42.09
2023-04-30T06:47:38.088Z,42.66
2023-04-30T06:50:07.526Z,42.68
2023-04-30T06:52:36.348Z,41.98
2023-04-30T06:55:05.815Z,42.01
2023-04-30T06:57:34.638Z,42.09
2023-04-30T07:00:04.059Z,41.77
2023-04-30T07:02:32.877Z,41.54
2023-04-30T07:05:02.015Z,41.21
2023-04-30T07:07:31.343Z,41.71
2023-04-30T07:10:00.331Z,40.18
2023-04-30T07:12:29.169Z,39.87
2023-04-30T07:14:58.039Z,40.51
2023-04-30T07:17:27.837Z,38.95
2023-04-30T07:19:57.087Z,38.49
2023-04-30T07:22:26.180Z,37.16
2023-04-30T07:24:55.096Z,39.02
2023-04-30T07:27:24.202Z,39.56
2023-04-30T07:29:53.783Z,39.19
2023-04-30T07:32:23.033Z,36.34
2023-04-30T07:34:52.294Z,37.25
2023-04-30T07:37:21.808Z,37.71
2023-04-30T07:39:50.839Z,37.72
2023-04-30T07:42:19.852Z,36.46
2023-04-30T07:44:49.241Z,36.04
2023-04-30T07:47:18.537Z,37.00
2023-04-30T07:49:47.869Z,37.00
2023-04-30T07:52:16.712Z,35.68
2023-04-30T07:54:45.539Z,35.83
2023-04-30T07:57:14.568Z,36.61
2023-04-30T07:59:43.422Z,36.26
2023-04-30T08:02:12.286Z,36.36
2023-04-30T08:04:41.233Z,35.89
2023-04-30T08:07:10.264Z,36.66
2023-04-30T08:09:39.322Z,36.57
2023-04-30T08:12:08.069Z,36.96
2023-04-30T08:14:36.844Z,37.50
2023-04-30T08:17:05.621Z,37.76
2023-04-30T08:19:34.657Z,37.83
2023-04-30T08:22:03.410Z,38.15
2023-04-30T08:24:32.181Z,38.07
2023-04-30T08:27:04.146Z,36.98
2023-04-30T08:29:32.872Z,37.21
2023-04-30T08:32:02.095Z,37.85
2023-04-30T08:34:30.961Z,37.87
2023-04-30T08:37:00.321Z,38.42
2023-04-30T08:39:29.063Z,38.78
2023-04-30T08:41:58.064Z,39.11
2023-04-30T08:44:27.068Z,39.13
2023-04-30T08:46:56.222Z,38.67
2023-04-30T08:49:25.193Z,37.69
2023-04-30T08:51:54.454Z,37.51
2023-04-30T08:54:23.232Z,38.21
2023-04-30T08:56:52.015Z,38.94
2023-04-30T08:59:21.430Z,39.61
2023-04-30T09:01:52.167Z,40.42
2023-04-30T09:04:22.546Z,40.29
2023-04-30T09:06:53.063Z,39.93
2023-04-30T09:09:21.853Z,40.34
2023-04-30T09:11:50.647Z,39.65
2023-04-30T09:14:23.542Z,39.55
2023-04-30T09:16:54.078Z,39.41
2023-04-30T09:19:27.184Z,40.55
2023-04-30T09:21:56.179Z,40.05
2023-04-30T09:24:25.360Z,39.45
2023-04-30T09:26:54.604Z,39.39
2023-04-30T09:29:24.015Z,38.82
2023-04-30T09:31:52.824Z,37.91
2023-04-30T09:34:22.275Z,38.86
2023-04-30T09:36:55.003Z,39.83
2023-04-30T09:39:24.062Z,38.10
2023-04-30T09:41:52.912Z,36.37
2023-04-30T09:44:31.123Z,35.40
2023-04-30T09:47:00.168Z,35.41
2023-04-30T09:49:29.063Z,37.03
2023-04-30T09:51:58.507Z,36.89
2023-04-30T09:54:28.673Z,35.98
2023-04-30T09:56:59.104Z,34.74
2023-04-30T09:59:30.739Z,35.61
2023-04-30T10:02:01.045Z,34.93
2023-04-30T10:04:31.966Z,35.52
2023-04-30T10:07:01.295Z,35.79
2023-04-30T10:09:31.239Z,34.53
2023-04-30T10:12:00.093Z,34.36
2023-04-30T10:14:28.861Z,34.24
2023-04-30T10:16:58.781Z,34.23
2023-04-30T10:19:27.890Z,34.12
2023-04-30T10:21:56.725Z,33.97
2023-04-30T10:24:25.510Z,33.70
2023-04-30T10:26:54.155Z,32.96
2023-04-30T10:29:23.528Z,33.47
2023-04-30T10:31:53.774Z,33.29
2023-04-30T10:34:29.959Z,33.33
2023-04-30T10:37:00.118Z,34.35
2023-04-30T10:39:29.117Z,33.80
2023-04-30T10:42:03.825Z,34.04
2023-04-30T10:44:34.920Z,34.07
2023-04-30T10:47:04.329Z,33.43
2023-04-30T10:49:33.384Z,34.68
2023-04-30T10:52:03.597Z,34.68
2023-04-30T10:54:33.014Z,34.28
2023-04-30T10:57:12.215Z,33.98
2023-04-30T10:59:41.199Z,33.94
2023-04-30T11:02:09.955Z,34.90
2023-04-30T11:04:39.397Z,34.36
2023-04-30T11:07:11.495Z,34.06
2023-04-30T11:09:42.144Z,34.40
2023-04-30T11:12:14.753Z,33.52
2023-04-30T11:14:44.021Z,33.84
2023-04-30T11:17:13.374Z,33.76
2023-04-30T11:19:49.300Z,32.88
2023-04-30T11:22:23.020Z,33.52
2023-04-30T11:24:52.185Z,34.32
2023-04-30T11:27:23.073Z,34.79
2023-04-30T11:29:52.608Z,34.58
2023-04-30T11:32:21.726Z,33.96
2023-04-30T11:34:50.941Z,33.62
2023-04-30T11:37:21.894Z,34.05
2023-04-30T11:39:51.321Z,34.19
2023-04-30T11:42:20.162Z,34.05
2023-04-30T11:44:48.932Z,34.45
2023-04-30T11:47:17.632Z,34.80
2023-04-30T11:49:46.411Z,34.27
2023-04-30T11:52:15.249Z,33.59
2023-04-30T11:54:43.957Z,34.76
2023-04-30T11:57:12.669Z,35.17
2023-04-30T11:59:44.650Z,33.94
2023-04-30T12:02:16.428Z,34.17
2023-04-30T12:04:47.262Z,33.57
2023-04-30T12:07:15.972Z,34.59
2023-04-30T12:09:54.385Z,34.01
2023-04-30T12:12:29.071Z,33.88
2023-04-30T12:14:57.846Z,33.56
2023-04-30T12:17:34.060Z,33.47
2023-04-30T12:20:05.052Z,33.30
2023-04-30T12:22:33.817Z,33.19
2023-04-30T12:25:02.590Z,33.04
2023-04-30T12:27:31.874Z,32.69
2023-04-30T12:30:00.777Z,32.33
2023-04-30T12:32:30.297Z,31.87
2023-04-30T12:35:02.124Z,32.22
2023-04-30T12:37:30.993Z,32.23
2023-04-30T12:40:00.183Z,32.42
2023-04-30T12:42:34.891Z,32.72
2023-04-30T12:45:03.783Z,32.66
2023-04-30T12:47:32.595Z,32.65
2023-04-30T12:50:01.360Z,33.19
2023-04-30T12:52:30.121Z,32.67
2023-04-30T12:54:58.836Z,32.12
2023-04-30T12:57:27.677Z,32.16
2023-04-30T12:59:59.838Z,31.88
2023-04-30T13:02:29.460Z,31.63
2023-04-30T13:04:59.041Z,31.70
2023-04-30T13:07:27.780Z,30.86
2023-04-30T13:09:57.020Z,31.53
2023-04-30T13:15:12.093Z,30.48
2023-04-30T13:17:40.838Z,31.02
2023-04-30T13:20:11.787Z,30.94
2023-04-30T13:22:40.777Z,30.37
2023-04-30T13:25:10.477Z,30.38
2023-04-30T13:30:45.012Z,30.39
2023-04-30T13:33:41.329Z,30.07
2023-04-30T13:36:19.864Z,29.81
2023-04-30T13:38:48.602Z,29.78
2023-04-30T13:41:17.454Z,30.34
2023-04-30T13:43:47.723Z,30.47
2023-04-30T13:46:16.634Z,30.20
2023-04-30T13:48:48.085Z,30.16
2023-04-30T13:51:16.990Z,29.53
2023-04-30T13:53:45.957Z,29.83
2023-04-30T13:56:16.384Z,30.30
2023-04-30T13:58:45.412Z,30.67
2023-04-30T14:01:14.670Z,30.56
2023-04-30T14:03:44.353Z,29.94
2023-04-30T14:06:13.239Z,29.80
2023-04-30T14:08:42.108Z,28.78
2023-04-30T14:11:11.231Z,29.05
2023-04-30T14:13:40.047Z,28.59
2023-04-30T14:16:10.268Z,28.75
2023-04-30T14:18:39.321Z,29.18
2023-04-30T14:21:08.079Z,28.67
2023-04-30T14:23:38.639Z,29.45
2023-04-30T14:26:07.508Z,30.14
2023-04-30T14:28:38.949Z,29.71
2023-04-30T14:31:07.777Z,29.59
2023-04-30T14:33:36.498Z,29.79
2023-04-30T14:36:05.629Z,29.39
2023-04-30T14:38:34.318Z,28.79
2023-04-30T14:41:03.131Z,28.74
2023-04-30T14:43:31.917Z,28.87
2023-04-30T14:46:00.588Z,29.65
2023-04-30T14:48:29.368Z,30.04
2023-04-30T14:50:58.720Z,29.70
2023-04-30T14:53:28.224Z,29.80
2023-04-30T14:55:57.175Z,29.56
2023-04-30T14:58:26.499Z,29.31
2023-04-30T15:00:57.127Z,29.71
2023-04-30T15:03:26.475Z,29.71
2023-04-30T15:05:56.382Z,29.91
2023-04-30T15:08:26.282Z,30.56
2023-04-30T15:10:55.812Z,31.56
2023-04-30T15:13:25.127Z,31.77
2023-04-30T15:15:54.244Z,32.88
2023-04-30T15:18:24.228Z,33.21
2023-04-30T15:20:54.513Z,33.57
2023-04-30T15:23:24.007Z,33.58
2023-04-30T15:25:53.188Z,33.51
2023-04-30T15:28:24.781Z,33.79
2023-04-30T15:30:55.989Z,33.78
2023-04-30T15:33:28.834Z,34.14
2023-04-30T15:35:58.658Z,33.94
2023-04-30T15:38:28.456Z,34.41
2023-04-30T15:40:57.818Z,35.15
2023-04-30T15:43:27.206Z,35.12
2023-04-30T15:46:04.372Z,35.41
2023-04-30T15:48:33.590Z,36.07
2023-04-30T15:51:02.991Z,36.27
2023-04-30T15:53:32.602Z,36.25
2023-04-30T15:56:04.254Z,36.83
2023-04-30T15:58:33.857Z,36.89
2023-04-30T16:01:03.154Z,37.00
2023-04-30T16:03:32.319Z,37.35
2023-04-30T16:06:01.772Z,37.83
2023-04-30T16:08:31.482Z,37.69
2023-04-30T16:11:01.266Z,37.47
2023-04-30T16:13:30.104Z,37.25
2023-04-30T16:15:58.888Z,37.64
2023-04-30T16:18:29.843Z,37.99
2023-04-30T16:20:59.405Z,38.17
2023-04-30T16:23:29.608Z,38.36
2023-04-30T16:25:59.785Z,38.97
2023-04-30T16:28:30.202Z,38.93
2023-04-30T16:31:00.762Z,38.61
2023-04-30T16:33:35.538Z,38.74
2023-04-30T16:36:05.720Z,39.10
2023-04-30T16:38:35.045Z,39.39
2023-04-30T16:41:05.758Z,39.43
2023-04-30T16:43:35.627Z,39.35
2023-04-30T16:46:07.567Z,39.61
2023-04-30T16:48:37.687Z,39.59
2023-04-30T16:51:07.888Z,39.44
2023-04-30T16:53:38.782Z,39.53
2023-04-30T16:56:08.278Z,39.67
2023-04-30T16:58:37.983Z,39.94
2023-04-30T17:01:06.884Z,39.94
2023-04-30T17:03:36.032Z,40.18
2023-04-30T17:06:07.152Z,39.78
2023-04-30T17:08:35.956Z,39.75
2023-04-30T17:11:04.777Z,39.95
2023-04-30T17:13:33.673Z,39.79
2023-04-30T17:16:02.504Z,40.17
2023-04-30T17:18:31.415Z,40.33
2023-04-30T17:21:00.278Z,40.57
2023-04-30T17:23:29.003Z,40.87
2023-04-30T17:25:57.973Z,41.18
2023-04-30T17:28:26.742Z,41.33
2023-04-30T17:30:55.847Z,41.43
2023-04-30T17:33:26.463Z,41.54
2023-04-30T17:35:55.573Z,41.84
2023-04-30T17:38:24.391Z,41.90
2023-04-30T17:40:54.204Z,42.18
2023-04-30T17:43:23.008Z,42.35
2023-04-30T17:45:52.062Z,42.77
2023-04-30T17:48:20.813Z,43.08
2023-04-30T17:50:49.930Z,43.17
2023-04-30T17:53:18.677Z,43.31
2023-04-30T17:55:47.441Z,43.61
2023-04-30T17:58:16.243Z,43.64
2023-04-30T18:00:44.998Z,43.92
2023-04-30T18:03:13.815Z,44.24
2023-04-30T18:05:42.620Z,44.37
2023-04-30T18:08:11.566Z,44.56
2023-04-30T18:10:40.533Z,44.53
2023-04-30T18:13:10.387Z,44.49
2023-04-30T18:15:39.800Z,44.56
2023-04-30T18:18:09.203Z,44.72
2023-04-30T18:20:38.321Z,45.19
2023-04-30T18:23:09.248Z,45.34
2023-04-30T18:25:38.757Z,45.17
2023-04-30T18:28:08.691Z,45.52
2023-04-30T18:30:37.534Z,45.68
2023-04-30T18:33:07.163Z,45.75
2023-04-30T18:35:35.944Z,45.88
2023-04-30T18:38:09.151Z,46.15
2023-04-30T18:40:38.068Z,46.22
2023-04-30T18:43:07.370Z,46.46
2023-04-30T18:45:36.695Z,46.55
2023-04-30T18:48:05.975Z,46.90
2023-04-30T18:50:34.781Z,46.91
2023-04-30T18:53:04.221Z,47.27
2023-04-30T18:55:32.953Z,47.44
2023-04-30T18:58:01.778Z,47.51
2023-04-30T19:00:30.568Z,47.84
2023-04-30T19:03:00.369Z,47.95
2023-04-30T19:05:29.366Z,48.24
2023-04-30T19:07:58.138Z,48.38
2023-04-30T19:10:27.158Z,48.58
2023-04-30T19:12:56.225Z,48.57
2023-04-30T19:15:25.645Z,48.54
2023-04-30T19:17:54.608Z,48.75
2023-04-30T19:20:23.427Z,48.86
2023-04-30T19:22:52.184Z,49.25
2023-04-30T19:25:21.417Z,49.33
2023-04-30T19:27:50.181Z,49.54
2023-04-30T19:30:19.354Z,49.65
2023-04-30T19:32:48.218Z,49.73
2023-04-30T19:35:17.465Z,49.85
2023-04-30T19:37:46.427Z,49.92
2023-04-30T19:40:16.164Z,49.93
2023-04-30T19:42:46.256Z,50.09
2023-04-30T19:45:15.823Z,50.15
2023-04-30T19:47:44.773Z,50.08
2023-04-30T19:50:14.519Z,50.16
2023-04-30T19:52:43.508Z,50.18
2023-04-30T19:55:13.148Z,50.26
2023-04-30T19:57:41.975Z,50.43
2023-04-30T20:00:12.901Z,50.45
2023-04-30T20:02:42.036Z,50.44
2023-04-30T20:05:11.923Z,50.67
2023-04-30T20:07:40.692Z,50.72
2023-04-30T20:10:10.784Z,50.82
2023-04-30T20:12:39.675Z,50.80
2023-04-30T20:15:09.868Z,51.01
2023-04-30T20:17:38.674Z,50.98
2023-04-30T20:20:08.292Z,51.07
2023-04-30T20:22:37.186Z,50.93
2023-04-30T20:25:06.554Z,51.27
2023-04-30T20:27:35.433Z,51.25
2023-04-30T20:30:04.745Z,51.43
2023-04-30T20:32:34.654Z,51.54
2023-04-30T20:35:03.728Z,51.66
2023-04-30T20:37:33.040Z,51.72
2023-04-30T20:40:02.384Z,51.84
2023-04-30T20:42:31.303Z,51.78
2023-04-30T20:45:05.513Z,51.65
2023-04-30T20:47:34.756Z,51.84
2023-04-30T20:50:03.826Z,51.88
2023-04-30T20:52:32.593Z,51.91
2023-04-30T20:55:01.404Z,51.94
2023-04-30T20:57:30.304Z,52.01
2023-04-30T20:59:59.144Z,52.09
2023-04-30T21:02:28.255Z,52.41
2023-04-30T21:04:58.411Z,52.42
2023-04-30T21:07:27.526Z,52.51
2023-04-30T21:09:57.037Z,52.41
2023-04-30T21:12:26.840Z,52.58
2023-04-30T21:14:55.585Z,52.69
2023-04-30T21:17:24.554Z,52.81
2023-04-30T21:19:53.550Z,52.96
2023-04-30T21:22:22.573Z,52.86
2023-04-30T21:24:52.208Z,52.98
2023-04-30T21:27:21.006Z,53.20
2023-04-30T21:29:49.782Z,53.22
2023-04-30T21:32:18.747Z,53.26
2023-04-30T21:34:48.205Z,53.50
2023-04-30T21:37:17.461Z,53.51
2023-04-30T21:39:46.308Z,53.60
2023-04-30T21:42:15.082Z,53.80
2023-04-30T21:44:44.334Z,53.67
2023-04-30T21:47:13.140Z,53.86
2023-04-30T21:49:42.606Z,53.92
2023-04-30T21:52:11.573Z,53.92
2023-04-30T21:54:40.408Z,54.03
2023-04-30T21:57:09.196Z,54.01
2023-04-30T21:59:37.915Z,54.01
2023-04-30T22:02:19.999Z,53.99
2023-04-30T22:04:53.340Z,54.14
2023-04-30T22:07:22.812Z,54.23
2023-04-30T22:09:52.683Z,54.31
2023-04-30T22:12:24.927Z,54.34
2023-04-30T22:14:54.751Z,54.53
2023-04-30T22:17:23.534Z,54.60
2023-04-30T22:19:52.556Z,54.74
2023-04-30T22:22:24.719Z,54.69
2023-04-30T22:24:53.697Z,54.57
2023-04-30T22:27:23.121Z,54.65
2023-04-30T22:29:52.053Z,54.70
2023-04-30T22:32:20.852Z,54.80
2023-04-30T22:34:50.769Z,54.75
2023-04-30T22:37:19.959Z,54.73
2023-04-30T22:39:48.876Z,54.70
2023-04-30T22:42:18.105Z,54.56
2023-04-30T22:44:46.911Z,54.48
2023-04-30T22:47:16.139Z,54.51
2023-04-30T22:49:45.385Z,54.48
2023-04-30T22:52:14.265Z,54.47
2023-04-30T22:54:43.134Z,54.45
2023-04-30T22:57:12.109Z,54.46
2023-04-30T22:59:40.932Z,54.50
2023-04-30T23:02:09.613Z,54.60
2023-04-30T23:04:38.450Z,54.60
2023-04-30T23:07:07.599Z,54.48
2023-04-30T23:09:36.404Z,54.57
2023-04-30T23:12:05.541Z,54.66
2023-04-30T23:14:34.287Z,54.46
2023-04-30T23:17:03.245Z,54.67
2023-04-30T23:19:32.087Z,54.55
2023-04-30T23:22:00.957Z,54.83
2023-04-30T23:24:34.981Z,54.89
2023-04-30T23:27:03.741Z,54.89
2023-04-30T23:29:33.302Z,55.09
2023-04-30T23:32:04.392Z,55.13
2023-04-30T23:34:33.485Z,55.12
2023-04-30T23:37:02.369Z,55.24
2023-04-30T23:39:31.312Z,55.22
2023-04-30T23:42:00.276Z,55.35
2023-04-30T23:44:31.646Z,55.42
2023-04-30T23:47:01.839Z,55.46
2023-04-30T23:49:30.697Z,55.35
2023-04-30T23:51:59.813Z,55.34
2023-04-30T23:54:28.698Z,55.27
2023-04-30T23:56:57.499Z,55.29
2023-04-30T23:59:26.816Z,55.56
